sensor_id;sensor_type;location;lat;lon;timestamp;temperature;humidity
46482;DHT22;32193;51.446;6.792;2022-12-07T00:01:38;7.30;99.90
46482;DHT22;32193;51.446;6.792;2022-12-07T00:04:05;7.10;99.90
46482;DHT22;32193;51.446;6.792;2022-12-07T00:06:39;6.60;99.90
46482;DHT22;32193;51.446;6.792;2022-12-07T00:09:06;7.00;99.90
46482;DHT22;32193;51.446;6.792;2022-12-07T00:11:32;7.20;99.90
46482;DHT22;32193;51.446;6.792;2022-12-07T00:14:00;6.80;99.90
46482;DHT22;32193;51.446;6.792;2022-12-07T00:16:29;7.10;99.90
46482;DHT22;32193;51.446;6.792;2022-12-07T00:18:55;7.20;99.90
46482;DHT22;32193;51.446;6.792;2022-12-07T00:21:24;7.00;99.90
46482;DHT22;32193;51.446;6.792;2022-12-07T00:23:51;6.90;99.90
46482;DHT22;32193;51.446;6.792;2022-12-07T00:26:22;6.90;99.90
46482;DHT22;32193;51.446;6.792;2022-12-07T00:28:55;6.90;99.90
46482;DHT22;32193;51.446;6.792;2022-12-07T00:31:25;7.00;99.90
46482;DHT22;32193;51.446;6.792;2022-12-07T00:33:51;7.00;99.90
46482;DHT22;32193;51.446;6.792;2022-12-07T00:36:19;7.00;99.90
46482;DHT22;32193;51.446;6.792;2022-12-07T00:38:45;7.00;99.90
46482;DHT22;32193;51.446;6.792;2022-12-07T00:41:16;7.10;99.90
46482;DHT22;32193;51.446;6.792;2022-12-07T00:43:43;6.90;99.90
46482;DHT22;32193;51.446;6.792;2022-12-07T00:46:09;6.80;99.90
46482;DHT22;32193;51.446;6.792;2022-12-07T00:48:35;7.20;99.90
46482;DHT22;32193;51.446;6.792;2022-12-07T00:51:01;7.20;99.90
46482;DHT22;32193;51.446;6.792;2022-12-07T00:53:27;7.00;99.90
46482;DHT22;32193;51.446;6.792;2022-12-07T00:55:53;6.60;99.90
46482;DHT22;32193;51.446;6.792;2022-12-07T01:00:46;6.60;99.90
46482;DHT22;32193;51.446;6.792;2022-12-07T01:03:13;6.80;99.90
46482;DHT22;32193;51.446;6.792;2022-12-07T01:08:06;7.00;99.90
46482;DHT22;32193;51.446;6.792;2022-12-07T01:10:32;7.40;99.90
46482;DHT22;32193;51.446;6.792;2022-12-07T01:12:58;6.90;99.90
46482;DHT22;32193;51.446;6.792;2022-12-07T01:15:25;6.90;99.90
46482;DHT22;32193;51.446;6.792;2022-12-07T01:17:50;6.90;99.90
46482;DHT22;32193;51.446;6.792;2022-12-07T01:22:43;6.90;99.90
46482;DHT22;32193;51.446;6.792;2022-12-07T01:25:10;6.80;99.90
46482;DHT22;32193;51.446;6.792;2022-12-07T01:27:36;7.00;99.90
46482;DHT22;32193;51.446;6.792;2022-12-07T01:30:03;7.00;99.90
46482;DHT22;32193;51.446;6.792;2022-12-07T01:34:56;6.80;99.90
46482;DHT22;32193;51.446;6.792;2022-12-07T01:37:21;6.70;99.90
46482;DHT22;32193;51.446;6.792;2022-12-07T01:39:51;6.60;99.90
46482;DHT22;32193;51.446;6.792;2022-12-07T01:42:17;6.90;99.90
46482;DHT22;32193;51.446;6.792;2022-12-07T01:47:48;7.00;99.90
46482;DHT22;32193;51.446;6.792;2022-12-07T01:50:15;6.60;99.90
46482;DHT22;32193;51.446;6.792;2022-12-07T01:52:42;6.60;99.90
46482;DHT22;32193;51.446;6.792;2022-12-07T01:55:12;6.60;99.90
46482;DHT22;32193;51.446;6.792;2022-12-07T01:57:41;6.90;99.90
46482;DHT22;32193;51.446;6.792;2022-12-07T02:00:09;6.70;99.90
46482;DHT22;32193;51.446;6.792;2022-12-07T02:02:39;6.70;99.90
46482;DHT22;32193;51.446;6.792;2022-12-07T02:05:07;6.50;99.90
46482;DHT22;32193;51.446;6.792;2022-12-07T02:07:36;6.60;99.90
46482;DHT22;32193;51.446;6.792;2022-12-07T02:10:31;6.60;99.90
46482;DHT22;32193;51.446;6.792;2022-12-07T02:29:45;6.20;99.90
46482;DHT22;32193;51.446;6.792;2022-12-07T02:32:31;7.00;99.90
46482;DHT22;32193;51.446;6.792;2022-12-07T02:35:39;6.90;99.90
46482;DHT22;32193;51.446;6.792;2022-12-07T02:40:51;6.50;99.90
46482;DHT22;32193;51.446;6.792;2022-12-07T02:43:53;6.40;99.90
46482;DHT22;32193;51.446;6.792;2022-12-07T02:46:29;6.70;99.90
46482;DHT22;32193;51.446;6.792;2022-12-07T02:48:56;6.40;99.90
46482;DHT22;32193;51.446;6.792;2022-12-07T02:53:50;6.30;99.90
46482;DHT22;32193;51.446;6.792;2022-12-07T02:58:46;6.10;99.90
46482;DHT22;32193;51.446;6.792;2022-12-07T03:06:49;5.80;99.90
46482;DHT22;32193;51.446;6.792;2022-12-07T03:12:14;6.30;99.90
46482;DHT22;32193;51.446;6.792;2022-12-07T03:14:53;5.90;99.90
46482;DHT22;32193;51.446;6.792;2022-12-07T03:17:32;6.20;99.90
46482;DHT22;32193;51.446;6.792;2022-12-07T03:20:01;6.30;99.90
46482;DHT22;32193;51.446;6.792;2022-12-07T03:22:30;6.30;99.90
46482;DHT22;32193;51.446;6.792;2022-12-07T03:25:04;6.10;99.90
46482;DHT22;32193;51.446;6.792;2022-12-07T03:28:01;5.60;99.90
46482;DHT22;32193;51.446;6.792;2022-12-07T03:30:32;5.80;99.90
46482;DHT22;32193;51.446;6.792;2022-12-07T03:33:29;6.00;99.90
46482;DHT22;32193;51.446;6.792;2022-12-07T03:36:05;6.00;99.90
46482;DHT22;32193;51.446;6.792;2022-12-07T03:38:45;5.80;99.90
46482;DHT22;32193;51.446;6.792;2022-12-07T03:43:42;6.20;99.90
46482;DHT22;32193;51.446;6.792;2022-12-07T03:49:48;5.50;99.90
46482;DHT22;32193;51.446;6.792;2022-12-07T03:54:56;5.90;99.90
46482;DHT22;32193;51.446;6.792;2022-12-07T03:57:25;6.00;99.90
46482;DHT22;32193;51.446;6.792;2022-12-07T03:59:54;6.70;99.90
46482;DHT22;32193;51.446;6.792;2022-12-07T04:02:20;6.20;99.90
46482;DHT22;32193;51.446;6.792;2022-12-07T04:04:47;6.20;99.90
46482;DHT22;32193;51.446;6.792;2022-12-07T04:07:13;6.20;99.90
46482;DHT22;32193;51.446;6.792;2022-12-07T04:12:04;6.10;99.90
46482;DHT22;32193;51.446;6.792;2022-12-07T04:16:58;5.60;99.90
46482;DHT22;32193;51.446;6.792;2022-12-07T04:19:30;6.10;99.90
46482;DHT22;32193;51.446;6.792;2022-12-07T04:21:57;6.20;99.90
46482;DHT22;32193;51.446;6.792;2022-12-07T04:24:24;6.10;99.90
46482;DHT22;32193;51.446;6.792;2022-12-07T04:26:49;5.90;99.90
46482;DHT22;32193;51.446;6.792;2022-12-07T04:29:16;6.20;99.90
46482;DHT22;32193;51.446;6.792;2022-12-07T04:31:42;5.80;99.90
46482;DHT22;32193;51.446;6.792;2022-12-07T04:36:34;5.40;99.90
46482;DHT22;32193;51.446;6.792;2022-12-07T04:41:26;5.70;99.90
46482;DHT22;32193;51.446;6.792;2022-12-07T04:43:57;6.00;99.90
46482;DHT22;32193;51.446;6.792;2022-12-07T04:46:24;5.70;99.90
46482;DHT22;32193;51.446;6.792;2022-12-07T04:48:50;5.70;99.90
46482;DHT22;32193;51.446;6.792;2022-12-07T04:51:23;6.00;99.90
46482;DHT22;32193;51.446;6.792;2022-12-07T04:53:49;5.70;99.90
46482;DHT22;32193;51.446;6.792;2022-12-07T04:56:15;5.80;99.90
46482;DHT22;32193;51.446;6.792;2022-12-07T04:58:42;5.70;99.90
46482;DHT22;32193;51.446;6.792;2022-12-07T05:01:08;5.50;99.90
46482;DHT22;32193;51.446;6.792;2022-12-07T05:03:35;5.70;99.90
46482;DHT22;32193;51.446;6.792;2022-12-07T05:08:26;6.00;99.90
46482;DHT22;32193;51.446;6.792;2022-12-07T05:10:52;5.90;99.90
46482;DHT22;32193;51.446;6.792;2022-12-07T05:13:17;6.10;99.90
46482;DHT22;32193;51.446;6.792;2022-12-07T05:18:10;6.20;99.90
46482;DHT22;32193;51.446;6.792;2022-12-07T05:20:38;6.10;99.90
46482;DHT22;32193;51.446;6.792;2022-12-07T05:23:04;6.00;99.90
46482;DHT22;32193;51.446;6.792;2022-12-07T05:25:29;6.10;99.90
46482;DHT22;32193;51.446;6.792;2022-12-07T05:27:55;5.90;99.90
46482;DHT22;32193;51.446;6.792;2022-12-07T05:30:22;6.10;99.90
46482;DHT22;32193;51.446;6.792;2022-12-07T05:35:14;5.30;99.90
46482;DHT22;32193;51.446;6.792;2022-12-07T05:37:40;5.70;99.90
46482;DHT22;32193;51.446;6.792;2022-12-07T05:40:06;5.50;99.90
46482;DHT22;32193;51.446;6.792;2022-12-07T05:42:31;6.00;99.90
46482;DHT22;32193;51.446;6.792;2022-12-07T05:44:57;6.30;99.90
46482;DHT22;32193;51.446;6.792;2022-12-07T05:49:49;6.20;99.90
46482;DHT22;32193;51.446;6.792;2022-12-07T05:52:14;5.80;99.90
46482;DHT22;32193;51.446;6.792;2022-12-07T05:54:40;5.60;99.90
46482;DHT22;32193;51.446;6.792;2022-12-07T05:59:31;5.60;99.90
46482;DHT22;32193;51.446;6.792;2022-12-07T06:04:29;6.00;99.90
46482;DHT22;32193;51.446;6.792;2022-12-07T06:06:55;6.60;99.90
46482;DHT22;32193;51.446;6.792;2022-12-07T06:09:22;6.00;99.90
46482;DHT22;32193;51.446;6.792;2022-12-07T06:11:48;6.00;99.90
46482;DHT22;32193;51.446;6.792;2022-12-07T06:19:24;6.20;99.90
46482;DHT22;32193;51.446;6.792;2022-12-07T06:21:50;6.20;99.90
46482;DHT22;32193;51.446;6.792;2022-12-07T06:24:16;5.80;99.90
46482;DHT22;32193;51.446;6.792;2022-12-07T06:26:43;5.60;99.90
46482;DHT22;32193;51.446;6.792;2022-12-07T06:31:35;6.00;99.90
46482;DHT22;32193;51.446;6.792;2022-12-07T06:34:03;5.40;99.90
46482;DHT22;32193;51.446;6.792;2022-12-07T06:36:29;6.40;99.90
46482;DHT22;32193;51.446;6.792;2022-12-07T06:38:55;6.10;99.90
46482;DHT22;32193;51.446;6.792;2022-12-07T06:41:21;5.90;99.90
46482;DHT22;32193;51.446;6.792;2022-12-07T06:43:47;5.90;99.90
46482;DHT22;32193;51.446;6.792;2022-12-07T06:51:05;5.90;99.90
46482;DHT22;32193;51.446;6.792;2022-12-07T07:00:49;6.20;99.90
46482;DHT22;32193;51.446;6.792;2022-12-07T07:03:16;5.70;99.90
46482;DHT22;32193;51.446;6.792;2022-12-07T07:05:42;6.00;99.90
46482;DHT22;32193;51.446;6.792;2022-12-07T07:08:08;5.90;99.90
46482;DHT22;32193;51.446;6.792;2022-12-07T07:10:34;5.70;99.90
46482;DHT22;32193;51.446;6.792;2022-12-07T07:15:25;6.20;99.90
46482;DHT22;32193;51.446;6.792;2022-12-07T07:17:51;6.00;99.90
46482;DHT22;32193;51.446;6.792;2022-12-07T07:27:34;6.20;99.90
46482;DHT22;32193;51.446;6.792;2022-12-07T07:30:00;6.50;99.90
46482;DHT22;32193;51.446;6.792;2022-12-07T07:32:25;6.10;99.90
46482;DHT22;32193;51.446;6.792;2022-12-07T07:34:51;6.10;99.90
46482;DHT22;32193;51.446;6.792;2022-12-07T07:44:35;6.10;99.90
46482;DHT22;32193;51.446;6.792;2022-12-07T07:47:00;6.20;99.90
46482;DHT22;32193;51.446;6.792;2022-12-07T07:49:26;6.40;99.90
46482;DHT22;32193;51.446;6.792;2022-12-07T07:51:52;6.00;99.90
46482;DHT22;32193;51.446;6.792;2022-12-07T07:54:17;5.90;99.90
46482;DHT22;32193;51.446;6.792;2022-12-07T07:56:43;5.90;99.90
46482;DHT22;32193;51.446;6.792;2022-12-07T08:01:34;6.10;99.90
46482;DHT22;32193;51.446;6.792;2022-12-07T08:04:00;6.40;99.90
46482;DHT22;32193;51.446;6.792;2022-12-07T08:06:26;6.20;99.90
46482;DHT22;32193;51.446;6.792;2022-12-07T08:08:52;6.80;99.90
46482;DHT22;32193;51.446;6.792;2022-12-07T08:11:17;6.30;99.90
46482;DHT22;32193;51.446;6.792;2022-12-07T08:13:45;6.50;99.90
46482;DHT22;32193;51.446;6.792;2022-12-07T08:16:12;6.10;99.90
46482;DHT22;32193;51.446;6.792;2022-12-07T08:18:39;6.20;99.90
46482;DHT22;32193;51.446;6.792;2022-12-07T08:21:07;6.00;99.90
46482;DHT22;32193;51.446;6.792;2022-12-07T08:23:33;6.10;99.90
46482;DHT22;32193;51.446;6.792;2022-12-07T08:26:04;6.40;99.90
46482;DHT22;32193;51.446;6.792;2022-12-07T08:28:29;6.20;99.90
46482;DHT22;32193;51.446;6.792;2022-12-07T08:31:12;6.40;99.90
46482;DHT22;32193;51.446;6.792;2022-12-07T08:33:39;5.70;99.90
46482;DHT22;32193;51.446;6.792;2022-12-07T08:36:07;5.80;99.90
46482;DHT22;32193;51.446;6.792;2022-12-07T08:38:38;5.80;99.90
46482;DHT22;32193;51.446;6.792;2022-12-07T08:43:30;5.80;99.90
46482;DHT22;32193;51.446;6.792;2022-12-07T08:49:00;5.70;99.90
46482;DHT22;32193;51.446;6.792;2022-12-07T08:51:27;6.20;99.90
46482;DHT22;32193;51.446;6.792;2022-12-07T08:53:54;6.00;99.90
46482;DHT22;32193;51.446;6.792;2022-12-07T08:56:21;6.10;99.90
46482;DHT22;32193;51.446;6.792;2022-12-07T08:58:47;5.80;99.90
46482;DHT22;32193;51.446;6.792;2022-12-07T09:06:05;5.60;99.90
46482;DHT22;32193;51.446;6.792;2022-12-07T09:08:34;5.40;99.90
46482;DHT22;32193;51.446;6.792;2022-12-07T09:11:01;5.90;99.90
46482;DHT22;32193;51.446;6.792;2022-12-07T09:13:27;6.20;99.90
46482;DHT22;32193;51.446;6.792;2022-12-07T09:15:52;5.70;99.90
46482;DHT22;32193;51.446;6.792;2022-12-07T09:20:44;6.30;99.90
46482;DHT22;32193;51.446;6.792;2022-12-07T09:23:09;6.30;99.90
46482;DHT22;32193;51.446;6.792;2022-12-07T09:25:35;6.90;99.90
46482;DHT22;32193;51.446;6.792;2022-12-07T09:28:01;7.30;99.90
46482;DHT22;32193;51.446;6.792;2022-12-07T09:30:27;6.70;99.90
46482;DHT22;32193;51.446;6.792;2022-12-07T09:32:54;7.10;99.90
46482;DHT22;32193;51.446;6.792;2022-12-07T09:35:20;6.80;99.90
46482;DHT22;32193;51.446;6.792;2022-12-07T09:37:45;7.70;99.90
46482;DHT22;32193;51.446;6.792;2022-12-07T09:40:12;7.00;99.90
46482;DHT22;32193;51.446;6.792;2022-12-07T09:42:42;7.30;99.90
46482;DHT22;32193;51.446;6.792;2022-12-07T09:45:26;7.00;99.90
46482;DHT22;32193;51.446;6.792;2022-12-07T09:50:25;7.00;99.90
46482;DHT22;32193;51.446;6.792;2022-12-07T09:52:52;7.00;99.90
46482;DHT22;32193;51.446;6.792;2022-12-07T09:55:26;6.70;99.90
46482;DHT22;32193;51.446;6.792;2022-12-07T09:57:53;7.00;99.90
46482;DHT22;32193;51.446;6.792;2022-12-07T10:00:22;7.30;99.90
46482;DHT22;32193;51.446;6.792;2022-12-07T10:02:50;7.50;99.90
46482;DHT22;32193;51.446;6.792;2022-12-07T10:05:21;7.50;99.90
46482;DHT22;32193;51.446;6.792;2022-12-07T10:07:47;8.20;99.90
46482;DHT22;32193;51.446;6.792;2022-12-07T10:13:14;8.20;99.90
46482;DHT22;32193;51.446;6.792;2022-12-07T10:15:52;8.40;99.90
46482;DHT22;32193;51.446;6.792;2022-12-07T10:18:28;8.00;99.90
46482;DHT22;32193;51.446;6.792;2022-12-07T10:21:24;8.00;99.90
46482;DHT22;32193;51.446;6.792;2022-12-07T10:24:00;8.00;99.90
46482;DHT22;32193;51.446;6.792;2022-12-07T10:29:20;7.90;99.90
46482;DHT22;32193;51.446;6.792;2022-12-07T10:32:03;8.20;99.90
46482;DHT22;32193;51.446;6.792;2022-12-07T10:34:32;8.30;99.90
46482;DHT22;32193;51.446;6.792;2022-12-07T10:40:00;8.50;99.90
46482;DHT22;32193;51.446;6.792;2022-12-07T10:42:30;8.20;99.90
46482;DHT22;32193;51.446;6.792;2022-12-07T10:45:16;7.80;99.90
46482;DHT22;32193;51.446;6.792;2022-12-07T11:08:12;8.30;99.90
46482;DHT22;32193;51.446;6.792;2022-12-07T11:24:17;8.30;99.90
46482;DHT22;32193;51.446;6.792;2022-12-07T11:27:14;8.30;99.90
46482;DHT22;32193;51.446;6.792;2022-12-07T11:30:08;8.90;99.90
46482;DHT22;32193;51.446;6.792;2022-12-07T11:36:17;8.30;99.90
46482;DHT22;32193;51.446;6.792;2022-12-07T11:38:22;8.30;99.90
46482;DHT22;32193;51.446;6.792;2022-12-07T11:40:50;8.40;99.90
46482;DHT22;32193;51.446;6.792;2022-12-07T11:46:00;7.90;99.90
46482;DHT22;32193;51.446;6.792;2022-12-07T11:49:15;8.00;99.90
46482;DHT22;32193;51.446;6.792;2022-12-07T11:51:21;8.20;99.90
46482;DHT22;32193;51.446;6.792;2022-12-07T11:54:01;8.40;99.90
46482;DHT22;32193;51.446;6.792;2022-12-07T11:56:29;8.80;99.90
46482;DHT22;32193;51.446;6.792;2022-12-07T11:59:04;8.50;99.90
46482;DHT22;32193;51.446;6.792;2022-12-07T12:06:35;8.00;99.90
46482;DHT22;32193;51.446;6.792;2022-12-07T12:09:27;8.10;99.90
46482;DHT22;32193;51.446;6.792;2022-12-07T12:15:23;8.20;99.90
46482;DHT22;32193;51.446;6.792;2022-12-07T12:23:28;8.40;99.90
46482;DHT22;32193;51.446;6.792;2022-12-07T12:26:02;8.20;99.90
46482;DHT22;32193;51.446;6.792;2022-12-07T12:28:36;8.70;99.90
46482;DHT22;32193;51.446;6.792;2022-12-07T12:31:12;8.30;99.90
46482;DHT22;32193;51.446;6.792;2022-12-07T12:33:46;8.20;99.90
46482;DHT22;32193;51.446;6.792;2022-12-07T12:47:03;8.50;99.90
46482;DHT22;32193;51.446;6.792;2022-12-07T12:49:35;8.90;99.90
46482;DHT22;32193;51.446;6.792;2022-12-07T12:54:40;8.10;99.90
46482;DHT22;32193;51.446;6.792;2022-12-07T12:57:27;8.10;99.90
46482;DHT22;32193;51.446;6.792;2022-12-07T13:02:34;8.30;99.90
46482;DHT22;32193;51.446;6.792;2022-12-07T13:15:48;8.00;99.90
46482;DHT22;32193;51.446;6.792;2022-12-07T13:23:36;8.00;99.90
46482;DHT22;32193;51.446;6.792;2022-12-07T13:26:22;8.00;99.90
46482;DHT22;32193;51.446;6.792;2022-12-07T13:34:28;8.40;99.90
46482;DHT22;32193;51.446;6.792;2022-12-07T13:36:54;8.00;99.90
46482;DHT22;32193;51.446;6.792;2022-12-07T13:39:25;7.80;99.90
46482;DHT22;32193;51.446;6.792;2022-12-07T13:41:56;7.80;99.90
46482;DHT22;32193;51.446;6.792;2022-12-07T13:44:23;7.60;99.90
46482;DHT22;32193;51.446;6.792;2022-12-07T13:47:17;7.70;99.90
46482;DHT22;32193;51.446;6.792;2022-12-07T13:49:49;7.70;99.90
46482;DHT22;32193;51.446;6.792;2022-12-07T13:52:26;7.80;99.90
46482;DHT22;32193;51.446;6.792;2022-12-07T13:57:33;7.70;99.90
46482;DHT22;32193;51.446;6.792;2022-12-07T14:00:01;7.70;99.90
46482;DHT22;32193;51.446;6.792;2022-12-07T14:02:33;7.80;99.90
46482;DHT22;32193;51.446;6.792;2022-12-07T14:07:33;7.60;99.90
46482;DHT22;32193;51.446;6.792;2022-12-07T14:10:05;7.70;99.90
46482;DHT22;32193;51.446;6.792;2022-12-07T14:12:32;7.60;99.90
46482;DHT22;32193;51.446;6.792;2022-12-07T14:15:02;7.70;99.90
46482;DHT22;32193;51.446;6.792;2022-12-07T14:17:28;7.70;99.90
46482;DHT22;32193;51.446;6.792;2022-12-07T14:20:01;7.80;99.90
46482;DHT22;32193;51.446;6.792;2022-12-07T14:22:36;7.50;99.90
46482;DHT22;32193;51.446;6.792;2022-12-07T14:25:27;7.60;99.90
46482;DHT22;32193;51.446;6.792;2022-12-07T14:27:58;7.80;99.90
46482;DHT22;32193;51.446;6.792;2022-12-07T14:30:27;8.00;99.90
46482;DHT22;32193;51.446;6.792;2022-12-07T14:33:01;7.50;99.90
46482;DHT22;32193;51.446;6.792;2022-12-07T14:35:27;8.50;99.90
46482;DHT22;32193;51.446;6.792;2022-12-07T14:37:53;7.90;99.90
46482;DHT22;32193;51.446;6.792;2022-12-07T14:40:27;8.40;99.90
46482;DHT22;32193;51.446;6.792;2022-12-07T14:42:57;7.30;99.90
46482;DHT22;32193;51.446;6.792;2022-12-07T14:45:24;7.30;99.90
46482;DHT22;32193;51.446;6.792;2022-12-07T14:47:49;7.70;99.90
46482;DHT22;32193;51.446;6.792;2022-12-07T14:50:17;7.30;99.90
46482;DHT22;32193;51.446;6.792;2022-12-07T14:52:47;7.30;99.90
46482;DHT22;32193;51.446;6.792;2022-12-07T14:55:27;7.10;99.90
46482;DHT22;32193;51.446;6.792;2022-12-07T14:57:53;7.10;99.90
46482;DHT22;32193;51.446;6.792;2022-12-07T15:00:19;7.30;99.90
46482;DHT22;32193;51.446;6.792;2022-12-07T15:02:46;7.10;99.90
46482;DHT22;32193;51.446;6.792;2022-12-07T15:05:12;7.00;99.90
46482;DHT22;32193;51.446;6.792;2022-12-07T15:07:39;7.10;99.90
46482;DHT22;32193;51.446;6.792;2022-12-07T15:10:05;7.10;99.90
46482;DHT22;32193;51.446;6.792;2022-12-07T15:12:31;7.00;99.90
46482;DHT22;32193;51.446;6.792;2022-12-07T15:14:57;7.00;99.90
46482;DHT22;32193;51.446;6.792;2022-12-07T15:17:23;7.10;99.90
46482;DHT22;32193;51.446;6.792;2022-12-07T15:19:48;7.00;99.90
46482;DHT22;32193;51.446;6.792;2022-12-07T15:22:14;7.20;99.90
46482;DHT22;32193;51.446;6.792;2022-12-07T15:24:39;7.50;99.90
46482;DHT22;32193;51.446;6.792;2022-12-07T15:27:05;6.90;99.90
46482;DHT22;32193;51.446;6.792;2022-12-07T15:29:31;6.80;99.90
46482;DHT22;32193;51.446;6.792;2022-12-07T15:31:56;6.70;99.90
46482;DHT22;32193;51.446;6.792;2022-12-07T15:34:24;7.00;99.90
46482;DHT22;32193;51.446;6.792;2022-12-07T15:36:50;6.80;99.90
46482;DHT22;32193;51.446;6.792;2022-12-07T15:39:16;6.70;99.90
46482;DHT22;32193;51.446;6.792;2022-12-07T15:41:41;6.80;99.90
46482;DHT22;32193;51.446;6.792;2022-12-07T15:44:11;6.70;99.90
46482;DHT22;32193;51.446;6.792;2022-12-07T15:46:55;6.80;99.90
46482;DHT22;32193;51.446;6.792;2022-12-07T15:49:21;6.70;99.90
46482;DHT22;32193;51.446;6.792;2022-12-07T15:51:46;6.70;99.90
46482;DHT22;32193;51.446;6.792;2022-12-07T15:54:24;6.90;99.90
46482;DHT22;32193;51.446;6.792;2022-12-07T15:56:50;6.80;99.90
46482;DHT22;32193;51.446;6.792;2022-12-07T15:59:16;7.00;99.90
46482;DHT22;32193;51.446;6.792;2022-12-07T16:01:42;6.90;99.90
46482;DHT22;32193;51.446;6.792;2022-12-07T16:04:07;6.80;99.90
46482;DHT22;32193;51.446;6.792;2022-12-07T16:06:33;6.80;99.90
46482;DHT22;32193;51.446;6.792;2022-12-07T16:08:59;6.90;99.90
46482;DHT22;32193;51.446;6.792;2022-12-07T16:11:24;6.80;99.90
46482;DHT22;32193;51.446;6.792;2022-12-07T16:13:50;6.90;99.90
46482;DHT22;32193;51.446;6.792;2022-12-07T16:16:18;6.90;99.90
46482;DHT22;32193;51.446;6.792;2022-12-07T16:18:45;6.90;99.90
46482;DHT22;32193;51.446;6.792;2022-12-07T16:21:11;6.90;99.90
46482;DHT22;32193;51.446;6.792;2022-12-07T16:23:36;6.90;99.90
46482;DHT22;32193;51.446;6.792;2022-12-07T16:26:07;7.00;99.90
46482;DHT22;32193;51.446;6.792;2022-12-07T16:28:33;7.00;99.90
46482;DHT22;32193;51.446;6.792;2022-12-07T16:31:04;6.90;99.90
46482;DHT22;32193;51.446;6.792;2022-12-07T16:33:30;7.00;99.90
46482;DHT22;32193;51.446;6.792;2022-12-07T16:35:55;7.20;99.90
46482;DHT22;32193;51.446;6.792;2022-12-07T16:38:21;7.10;99.90
46482;DHT22;32193;51.446;6.792;2022-12-07T16:40:47;7.20;99.90
46482;DHT22;32193;51.446;6.792;2022-12-07T16:43:13;7.80;99.90
46482;DHT22;32193;51.446;6.792;2022-12-07T16:45:39;7.10;99.90
46482;DHT22;32193;51.446;6.792;2022-12-07T16:48:04;7.20;99.90
46482;DHT22;32193;51.446;6.792;2022-12-07T16:50:30;7.40;99.90
46482;DHT22;32193;51.446;6.792;2022-12-07T16:52:56;7.20;99.90
46482;DHT22;32193;51.446;6.792;2022-12-07T16:55:21;7.30;99.90
46482;DHT22;32193;51.446;6.792;2022-12-07T16:57:47;7.20;99.90
46482;DHT22;32193;51.446;6.792;2022-12-07T17:00:13;7.20;99.90
46482;DHT22;32193;51.446;6.792;2022-12-07T17:02:38;7.00;99.90
46482;DHT22;32193;51.446;6.792;2022-12-07T17:05:04;7.00;99.90
46482;DHT22;32193;51.446;6.792;2022-12-07T17:07:30;7.10;99.90
46482;DHT22;32193;51.446;6.792;2022-12-07T17:09:55;7.20;99.90
46482;DHT22;32193;51.446;6.792;2022-12-07T17:12:21;7.20;99.90
46482;DHT22;32193;51.446;6.792;2022-12-07T17:14:46;7.60;99.90
46482;DHT22;32193;51.446;6.792;2022-12-07T17:17:31;7.20;99.90
46482;DHT22;32193;51.446;6.792;2022-12-07T17:19:56;7.10;99.90
46482;DHT22;32193;51.446;6.792;2022-12-07T17:22:22;7.10;99.90
46482;DHT22;32193;51.446;6.792;2022-12-07T17:24:47;7.00;99.90
46482;DHT22;32193;51.446;6.792;2022-12-07T17:27:13;6.90;99.90
46482;DHT22;32193;51.446;6.792;2022-12-07T17:29:39;7.00;99.90
46482;DHT22;32193;51.446;6.792;2022-12-07T17:32:04;6.90;99.90
46482;DHT22;32193;51.446;6.792;2022-12-07T17:34:30;7.00;99.90
46482;DHT22;32193;51.446;6.792;2022-12-07T17:36:55;7.00;99.90
46482;DHT22;32193;51.446;6.792;2022-12-07T17:39:21;6.90;99.90
46482;DHT22;32193;51.446;6.792;2022-12-07T17:41:47;7.40;99.90
46482;DHT22;32193;51.446;6.792;2022-12-07T17:44:31;6.80;99.90
46482;DHT22;32193;51.446;6.792;2022-12-07T17:46:57;6.50;99.90
46482;DHT22;32193;51.446;6.792;2022-12-07T17:49:24;7.00;99.90
46482;DHT22;32193;51.446;6.792;2022-12-07T17:51:50;7.10;99.90
46482;DHT22;32193;51.446;6.792;2022-12-07T17:54:34;7.00;99.90
46482;DHT22;32193;51.446;6.792;2022-12-07T17:57:00;6.80;99.90
46482;DHT22;32193;51.446;6.792;2022-12-07T17:59:26;6.70;99.90
46482;DHT22;32193;51.446;6.792;2022-12-07T18:01:51;6.70;99.90
46482;DHT22;32193;51.446;6.792;2022-12-07T18:04:17;6.80;99.90
46482;DHT22;32193;51.446;6.792;2022-12-07T18:06:43;6.80;99.90
46482;DHT22;32193;51.446;6.792;2022-12-07T18:09:09;6.90;99.90
46482;DHT22;32193;51.446;6.792;2022-12-07T18:11:35;6.90;99.90
46482;DHT22;32193;51.446;6.792;2022-12-07T18:14:01;7.00;99.90
46482;DHT22;32193;51.446;6.792;2022-12-07T18:16:28;6.60;99.90
46482;DHT22;32193;51.446;6.792;2022-12-07T18:18:58;6.80;99.90
46482;DHT22;32193;51.446;6.792;2022-12-07T18:21:26;6.70;99.90
46482;DHT22;32193;51.446;6.792;2022-12-07T18:23:55;6.70;99.90
46482;DHT22;32193;51.446;6.792;2022-12-07T18:26:22;6.80;99.90
46482;DHT22;32193;51.446;6.792;2022-12-07T18:28:48;6.80;99.90
46482;DHT22;32193;51.446;6.792;2022-12-07T18:31:14;6.70;99.90
46482;DHT22;32193;51.446;6.792;2022-12-07T18:33:41;6.70;99.90
46482;DHT22;32193;51.446;6.792;2022-12-07T18:36:08;6.60;99.90
46482;DHT22;32193;51.446;6.792;2022-12-07T18:38:34;6.70;99.90
46482;DHT22;32193;51.446;6.792;2022-12-07T18:41:00;6.70;99.90
46482;DHT22;32193;51.446;6.792;2022-12-07T18:43:26;6.70;99.90
46482;DHT22;32193;51.446;6.792;2022-12-07T18:45:52;6.70;99.90
46482;DHT22;32193;51.446;6.792;2022-12-07T18:48:19;6.70;99.90
46482;DHT22;32193;51.446;6.792;2022-12-07T18:50:46;6.70;99.90
46482;DHT22;32193;51.446;6.792;2022-12-07T18:53:12;6.70;99.90
46482;DHT22;32193;51.446;6.792;2022-12-07T18:55:38;6.60;99.90
46482;DHT22;32193;51.446;6.792;2022-12-07T18:58:05;6.70;99.90
46482;DHT22;32193;51.446;6.792;2022-12-07T19:00:32;6.50;99.90
46482;DHT22;32193;51.446;6.792;2022-12-07T19:02:58;6.80;99.90
46482;DHT22;32193;51.446;6.792;2022-12-07T19:05:24;6.50;99.90
46482;DHT22;32193;51.446;6.792;2022-12-07T19:07:50;6.60;99.90
46482;DHT22;32193;51.446;6.792;2022-12-07T19:10:16;6.30;99.90
46482;DHT22;32193;51.446;6.792;2022-12-07T19:12:42;6.50;99.90
46482;DHT22;32193;51.446;6.792;2022-12-07T19:15:10;7.40;99.90
46482;DHT22;32193;51.446;6.792;2022-12-07T19:17:35;6.30;99.90
46482;DHT22;32193;51.446;6.792;2022-12-07T19:20:03;6.80;99.90
46482;DHT22;32193;51.446;6.792;2022-12-07T19:22:29;6.50;99.90
46482;DHT22;32193;51.446;6.792;2022-12-07T19:24:54;6.30;99.90
46482;DHT22;32193;51.446;6.792;2022-12-07T19:27:21;6.30;99.90
46482;DHT22;32193;51.446;6.792;2022-12-07T19:29:48;6.10;99.90
46482;DHT22;32193;51.446;6.792;2022-12-07T19:32:14;6.40;99.90
46482;DHT22;32193;51.446;6.792;2022-12-07T19:34:42;6.30;99.90
46482;DHT22;32193;51.446;6.792;2022-12-07T19:37:08;6.50;99.90
46482;DHT22;32193;51.446;6.792;2022-12-07T19:39:36;6.50;99.90
46482;DHT22;32193;51.446;6.792;2022-12-07T19:42:01;6.40;99.90
46482;DHT22;32193;51.446;6.792;2022-12-07T19:44:27;6.20;99.90
46482;DHT22;32193;51.446;6.792;2022-12-07T19:46:57;6.40;99.90
46482;DHT22;32193;51.446;6.792;2022-12-07T19:49:25;6.30;99.90
46482;DHT22;32193;51.446;6.792;2022-12-07T19:51:57;6.20;99.90
46482;DHT22;32193;51.446;6.792;2022-12-07T19:54:25;6.50;99.90